Time,TemperatureF,DewpointF,PressureIn,WindDirection,WindDirectionDegrees,WindSpeedMPH,WindSpeedGustMPH,Humidity,HourlyPrecipIn,Conditions,Clouds,dailyrainin,SoftwareType,DateUTC
2013-08-13 00:00:00,63.5,48.9,29.83,NE,38,0.0,0.0,59,0.00,,,0.00,Wunderground v.1.15,2013-08-13 06:00:00,
2013-08-13 00:10:00,61.7,49.0,29.84,NE,38,0.0,0.0,63,0.00,,,0.00,Wunderground v.1.15,2013-08-13 06:10:00,
2013-08-13 00:20:00,61.3,48.6,29.84,NE,38,0.0,0.0,63,0.00,,,0.00,Wunderground v.1.15,2013-08-13 06:20:00,
2013-08-13 00:29:00,61.3,48.6,29.85,NE,38,0.0,0.0,63,0.00,,,0.00,Wunderground v.1.15,2013-08-13 06:29:00,
2013-08-13 00:39:00,61.2,48.5,29.85,NE,38,0.0,0.0,63,0.00,,,0.00,Wunderground v.1.15,2013-08-13 06:39:00,
2013-08-13 00:50:00,60.3,48.1,29.85,NE,38,0.0,0.0,64,0.00,,,0.00,Wunderground v.1.15,2013-08-13 06:50:00,
2013-08-13 01:00:00,59.6,47.8,29.85,NE,38,0.0,0.0,65,0.00,,,0.00,Wunderground v.1.15,2013-08-13 07:00:00,
2013-08-13 01:09:00,59.0,48.1,29.84,NE,38,0.0,0.0,67,0.00,,,0.00,Wunderground v.1.15,2013-08-13 07:09:00,
2013-08-13 01:20:00,58.7,48.2,29.84,NE,38,0.0,0.0,68,0.00,,,0.00,Wunderground v.1.15,2013-08-13 07:20:00,
2013-08-13 01:30:00,58.4,47.9,29.85,NE,38,0.0,0.0,68,0.00,,,0.00,Wunderground v.1.15,2013-08-13 07:30:00,
2013-08-13 01:40:00,57.5,47.4,29.85,NE,38,0.0,0.0,69,0.00,,,0.00,Wunderground v.1.15,2013-08-13 07:40:00,
2013-08-13 01:49:00,57.4,48.1,29.84,NE,38,0.0,0.0,71,0.00,,,0.00,Wunderground v.1.15,2013-08-13 07:49:00,
2013-08-13 02:00:00,59.0,48.8,29.83,NE,39,0.0,0.0,69,0.00,,,0.00,Wunderground v.1.15,2013-08-13 08:00:00,
2013-08-13 02:10:00,59.6,48.6,29.82,NE,38,0.0,0.0,67,0.00,,,0.00,Wunderground v.1.15,2013-08-13 08:10:00,
2013-08-13 02:19:00,59.0,48.4,29.82,NE,34,0.0,0.0,68,0.00,,,0.00,Wunderground v.1.15,2013-08-13 08:19:00,
2013-08-13 02:29:00,58.2,48.1,29.83,NE,34,0.0,0.0,69,0.00,,,0.00,Wunderground v.1.15,2013-08-13 08:29:00,
2013-08-13 02:40:00,57.3,47.6,29.83,NE,34,0.0,0.0,70,0.00,,,0.00,Wunderground v.1.15,2013-08-13 08:40:00,
2013-08-13 02:50:00,55.9,47.4,29.85,NNE,24,1.0,3.0,73,0.00,,,0.00,Wunderground v.1.15,2013-08-13 08:50:00,
2013-08-13 02:59:00,55.7,47.2,29.84,NNE,24,0.0,0.0,73,0.00,,,0.00,Wunderground v.1.15,2013-08-13 08:59:00,
2013-08-13 03:09:00,55.5,47.0,29.85,NNE,24,0.0,0.0,73,0.00,,,0.00,Wunderground v.1.15,2013-08-13 09:09:00,
2013-08-13 03:20:00,55.5,47.3,29.85,NNE,24,0.0,0.0,74,0.00,,,0.00,Wunderground v.1.15,2013-08-13 09:20:00,
2013-08-13 03:29:00,55.7,47.5,29.85,NNE,24,0.0,0.0,74,0.00,,,0.00,Wunderground v.1.15,2013-08-13 09:29:00,
2013-08-13 03:39:00,55.8,47.3,29.85,NNE,24,0.0,0.0,73,0.00,,,0.00,Wunderground v.1.15,2013-08-13 09:39:00,
2013-08-13 03:50:00,55.8,47.3,29.86,NNE,24,0.0,0.0,73,0.00,,,0.00,Wunderground v.1.15,2013-08-13 09:50:00,
2013-08-13 04:00:00,55.3,46.8,29.86,NNE,22,0.0,0.0,73,0.00,,,0.00,Wunderground v.1.15,2013-08-13 10:00:00,
2013-08-13 04:10:00,54.6,46.5,29.87,NNE,23,0.0,0.0,74,0.00,,,0.00,Wunderground v.1.15,2013-08-13 10:10:00,
2013-08-13 04:19:00,54.1,46.3,29.87,NNE,22,0.0,0.0,75,0.00,,,0.00,Wunderground v.1.15,2013-08-13 10:19:00,
2013-08-13 04:30:00,53.7,46.3,29.87,NNE,22,0.0,0.0,76,0.00,,,0.00,Wunderground v.1.15,2013-08-13 10:30:00,
2013-08-13 04:40:00,53.3,46.3,29.88,NNE,23,0.0,0.0,77,0.00,,,0.00,Wunderground v.1.15,2013-08-13 10:40:00,
2013-08-13 04:49:00,52.8,45.8,29.88,NNE,22,0.0,0.0,77,0.00,,,0.00,Wunderground v.1.15,2013-08-13 10:49:00,
2013-08-13 04:59:00,53.0,46.0,29.88,NNE,22,0.0,0.0,77,0.00,,,0.00,Wunderground v.1.15,2013-08-13 10:59:00,
2013-08-13 05:09:00,53.5,46.1,29.86,NNE,23,0.0,0.0,76,0.00,,,0.00,Wunderground v.1.15,2013-08-13 11:09:00,
2013-08-13 05:20:00,53.6,46.2,29.85,NNE,24,0.0,0.0,76,0.00,,,0.00,Wunderground v.1.15,2013-08-13 11:20:00,
2013-08-13 05:29:00,53.6,46.2,29.85,NNE,24,0.0,0.0,76,0.00,,,0.00,Wunderground v.1.15,2013-08-13 11:29:00,
2013-08-13 05:39:00,52.9,45.2,29.87,NNE,24,0.0,0.0,75,0.00,,,0.00,Wunderground v.1.15,2013-08-13 11:39:00,
2013-08-13 05:50:00,52.7,45.7,29.87,NNE,24,0.0,0.0,77,0.00,,,0.00,Wunderground v.1.15,2013-08-13 11:50:00,
2013-08-13 05:59:00,52.8,45.8,29.88,NNE,24,0.0,0.0,77,0.00,,,0.00,Wunderground v.1.15,2013-08-13 11:59:00,
2013-08-13 06:09:00,53.7,47.0,29.94,NNE,24,0.0,0.0,78,0.00,,,0.00,Wunderground v.1.15,2013-08-13 12:09:00,
2013-08-13 06:19:00,53.8,46.1,29.94,NNE,24,0.0,0.0,75,0.00,,,0.00,Wunderground v.1.15,2013-08-13 12:19:00,
2013-08-13 06:30:00,53.1,46.1,29.94,NNE,24,0.0,0.0,77,0.00,,,0.00,Wunderground v.1.15,2013-08-13 12:30:00,
2013-08-13 06:39:00,53.1,46.1,29.94,NNE,24,0.0,0.0,77,0.00,,,0.00,Wunderground v.1.15,2013-08-13 12:39:00,
2013-08-13 06:49:00,53.3,46.6,29.95,NNE,22,0.0,0.0,78,0.00,,,0.00,Wunderground v.1.15,2013-08-13 12:49:00,
2013-08-13 06:59:00,53.0,46.3,29.95,NNE,22,0.0,0.0,78,0.00,,,0.00,Wunderground v.1.15,2013-08-13 12:59:00,
2013-08-13 07:10:00,52.9,46.6,29.97,NNE,23,0.0,0.0,79,0.00,,,0.00,Wunderground v.1.15,2013-08-13 13:10:00,
2013-08-13 07:19:00,52.8,46.8,29.97,NNE,22,0.0,0.0,80,0.00,,,0.00,Wunderground v.1.15,2013-08-13 13:19:00,
2013-08-13 07:29:00,53.7,48.0,29.97,NNE,15,0.0,1.0,81,0.00,,,0.00,Wunderground v.1.15,2013-08-13 13:29:00,
2013-08-13 07:39:00,55.0,48.9,29.96,NNW,337,0.0,0.0,80,0.00,,,0.00,Wunderground v.1.15,2013-08-13 13:39:00,
2013-08-13 07:49:00,55.9,49.1,29.96,NNW,336,0.0,0.0,78,0.00,,,0.00,Wunderground v.1.15,2013-08-13 13:49:00,
2013-08-13 07:59:00,57.1,50.0,29.96,NNW,337,0.0,0.0,77,0.00,,,0.00,Wunderground v.1.15,2013-08-13 13:59:00,
2013-08-13 08:09:00,59.4,51.5,29.96,SSE,155,0.0,0.0,75,0.00,,,0.00,Wunderground v.1.15,2013-08-13 14:09:00,
2013-08-13 08:20:00,62.6,52.3,29.94,SE,127,0.0,0.0,69,0.00,,,0.00,Wunderground v.1.15,2013-08-13 14:20:00,
2013-08-13 08:29:00,65.3,51.1,29.93,East,88,1.0,6.0,60,0.00,,,0.00,Wunderground v.1.15,2013-08-13 14:29:00,
2013-08-13 08:39:00,67.5,50.3,29.92,East,82,3.0,3.0,54,0.00,,,0.00,Wunderground v.1.15,2013-08-13 14:39:00,
2013-08-13 08:49:00,68.9,50.0,29.92,ESE,113,3.0,5.0,51,0.00,,,0.00,Wunderground v.1.15,2013-08-13 14:49:00,
2013-08-13 08:59:00,70.0,50.0,29.91,ENE,78,4.0,4.0,49,0.00,,,0.00,Wunderground v.1.15,2013-08-13 14:59:00,
2013-08-13 09:09:00,70.4,49.2,29.94,ESE,122,4.0,4.0,47,0.00,,,0.00,Wunderground v.1.15,2013-08-13 15:09:00,
2013-08-13 09:19:00,71.4,50.1,29.93,East,81,3.0,4.0,47,0.00,,,0.00,Wunderground v.1.15,2013-08-13 15:19:00,
2013-08-13 09:30:00,72.3,49.8,29.93,East,92,4.0,4.0,45,0.00,,,0.00,Wunderground v.1.15,2013-08-13 15:30:00,
2013-08-13 09:39:00,73.0,49.8,29.92,ESE,109,5.0,5.0,44,0.00,,,0.00,Wunderground v.1.15,2013-08-13 15:39:00,
2013-08-13 09:49:00,73.7,49.8,29.92,ESE,107,5.0,5.0,43,0.00,,,0.00,Wunderground v.1.15,2013-08-13 15:49:00,
2013-08-13 09:59:00,74.0,50.1,29.92,East,90,5.0,6.0,43,0.00,,,0.00,Wunderground v.1.15,2013-08-13 15:59:00,
2013-08-13 10:10:00,74.1,50.2,29.91,ENE,63,5.0,5.0,43,0.00,,,0.00,Wunderground v.1.15,2013-08-13 16:10:00,
2013-08-13 10:19:00,74.6,50.6,29.91,ENE,73,5.0,8.0,43,0.00,,,0.00,Wunderground v.1.15,2013-08-13 16:19:00,
2013-08-13 10:29:00,75.3,50.6,29.91,ESE,114,5.0,5.0,42,0.00,,,0.00,Wunderground v.1.15,2013-08-13 16:29:00,
2013-08-13 10:39:00,76.1,51.3,29.90,East,90,3.0,3.0,42,0.00,,,0.00,Wunderground v.1.15,2013-08-13 16:39:00,
2013-08-13 10:49:00,77.2,51.0,29.90,SE,124,4.0,4.0,40,0.00,,,0.00,Wunderground v.1.15,2013-08-13 16:49:00,
2013-08-13 10:59:00,78.0,51.7,29.88,East,88,2.0,7.0,40,0.00,,,0.00,Wunderground v.1.15,2013-08-13 16:59:00,
2013-08-13 11:19:00,79.2,52.1,29.91,East,88,2.0,2.0,39,0.00,,,0.00,Wunderground v.1.15,2013-08-13 17:19:00,
2013-08-13 11:29:00,80.3,51.7,29.90,ESE,102,3.0,4.0,37,0.00,,,0.00,Wunderground v.1.15,2013-08-13 17:29:00,
2013-08-13 11:39:00,81.4,51.9,29.89,ESE,115,2.0,2.0,36,0.00,,,0.00,Wunderground v.1.15,2013-08-13 17:39:00,
2013-08-13 11:49:00,82.5,52.1,29.88,NE,42,2.0,4.0,35,0.00,,,0.00,Wunderground v.1.15,2013-08-13 17:49:00,
2013-08-13 11:59:00,82.2,51.0,29.88,NE,38,2.0,2.0,34,0.00,,,0.00,Wunderground v.1.15,2013-08-13 17:59:00,
2013-08-13 12:09:00,82.5,51.3,29.89,NNE,33,1.0,1.0,34,0.00,,,0.00,Wunderground v.1.15,2013-08-13 18:09:00,
2013-08-13 12:19:00,83.0,51.7,29.88,NW,319,2.0,4.0,34,0.00,,,0.00,Wunderground v.1.15,2013-08-13 18:19:00,
2013-08-13 12:29:00,83.3,51.2,29.88,NE,40,2.0,3.0,33,0.00,,,0.00,Wunderground v.1.15,2013-08-13 18:29:00,
2013-08-13 12:39:00,83.4,52.9,29.87,North,9,1.0,1.0,35,0.00,,,0.00,Wunderground v.1.15,2013-08-13 18:39:00,
2013-08-13 12:49:00,84.2,52.8,29.86,NNW,344,1.0,2.0,34,0.00,,,0.00,Wunderground v.1.15,2013-08-13 18:49:00,
2013-08-13 12:59:00,85.3,52.9,29.85,NW,306,0.0,2.0,33,0.00,,,0.00,Wunderground v.1.15,2013-08-13 18:59:00,
2013-08-13 13:10:00,84.6,52.3,29.85,SSW,207,1.0,2.0,33,0.00,,,0.00,Wunderground v.1.15,2013-08-13 19:10:00,
2013-08-13 13:20:00,84.8,50.8,29.84,West,265,2.0,2.0,31,0.00,,,0.00,Wunderground v.1.15,2013-08-13 19:20:00,
2013-08-13 13:29:00,85.7,50.7,29.83,SE,128,1.0,1.0,30,0.00,,,0.00,Wunderground v.1.15,2013-08-13 19:29:00,
2013-08-13 13:39:00,87.5,52.2,29.82,West,279,1.0,1.0,30,0.00,,,0.00,Wunderground v.1.15,2013-08-13 19:39:00,
2013-08-13 13:49:00,88.3,52.0,29.82,North,360,1.0,2.0,29,0.00,,,0.00,Wunderground v.1.15,2013-08-13 19:49:00,
2013-08-13 13:59:00,89.0,49.7,29.81,NW,318,3.0,3.0,26,0.00,,,0.00,Wunderground v.1.15,2013-08-13 19:59:00,
2013-08-13 14:09:00,89.7,50.3,29.81,NW,317,3.0,4.0,26,0.00,,,0.00,Wunderground v.1.15,2013-08-13 20:09:00,
2013-08-13 14:19:00,90.1,50.6,29.81,NNW,340,2.0,2.0,26,0.00,,,0.00,Wunderground v.1.15,2013-08-13 20:19:00,
2013-08-13 14:30:00,89.5,49.0,29.80,North,5,4.0,4.0,25,0.00,,,0.00,Wunderground v.1.15,2013-08-13 20:30:00,
2013-08-13 14:39:00,89.2,47.7,29.81,WSW,241,4.0,4.0,24,0.00,,,0.00,Wunderground v.1.15,2013-08-13 20:39:00,
2013-08-13 14:49:00,89.3,49.9,29.81,West,280,4.0,8.0,26,0.00,,,0.00,Wunderground v.1.15,2013-08-13 20:49:00,
2013-08-13 14:59:00,90.1,49.5,29.79,West,271,4.0,6.0,25,0.00,,,0.00,Wunderground v.1.15,2013-08-13 20:59:00,
2013-08-13 15:10:00,90.4,49.8,29.80,West,280,3.0,3.0,25,0.00,,,0.00,Wunderground v.1.15,2013-08-13 21:10:00,
2013-08-13 15:19:00,90.5,48.8,29.79,North,355,4.0,4.0,24,0.00,,,0.00,Wunderground v.1.15,2013-08-13 21:19:00,
2013-08-13 15:29:00,91.5,51.8,29.78,West,268,3.0,3.0,26,0.00,,,0.00,Wunderground v.1.15,2013-08-13 21:29:00,
2013-08-13 15:39:00,90.7,46.6,29.79,West,260,5.0,5.0,22,0.00,,,0.00,Wunderground v.1.15,2013-08-13 21:39:00,
2013-08-13 15:50:00,90.8,47.9,29.78,West,267,3.0,3.0,23,0.00,,,0.00,Wunderground v.1.15,2013-08-13 21:50:00,
2013-08-13 15:59:00,90.2,48.5,29.78,WNW,288,6.0,6.0,24,0.00,,,0.00,Wunderground v.1.15,2013-08-13 21:59:00,
2013-08-13 16:09:00,89.9,48.3,29.79,NNW,340,5.0,7.0,24,0.00,,,0.00,Wunderground v.1.15,2013-08-13 22:09:00,
2013-08-13 16:19:00,90.1,47.3,29.78,SSW,198,5.0,13.0,23,0.00,,,0.00,Wunderground v.1.15,2013-08-13 22:19:00,
2013-08-13 16:29:00,89.5,47.9,29.78,West,280,8.0,11.0,24,0.00,,,0.00,Wunderground v.1.15,2013-08-13 22:29:00,
2013-08-13 16:39:00,89.5,47.9,29.78,WSW,249,7.0,7.0,24,0.00,,,0.00,Wunderground v.1.15,2013-08-13 22:39:00,
2013-08-13 16:49:00,89.3,47.8,29.78,WNW,283,6.0,12.0,24,0.00,,,0.00,Wunderground v.1.15,2013-08-13 22:49:00,
2013-08-13 17:00:00,89.7,48.1,29.77,West,276,5.0,8.0,24,0.00,,,0.00,Wunderground v.1.15,2013-08-13 23:00:00,
2013-08-13 17:09:00,89.4,48.9,29.77,WNW,283,8.0,9.0,25,0.00,,,0.00,Wunderground v.1.15,2013-08-13 23:09:00,
2013-08-13 17:19:00,89.3,47.8,29.77,SW,232,7.0,7.0,24,0.00,,,0.00,Wunderground v.1.15,2013-08-13 23:19:00,
2013-08-13 17:29:00,88.7,47.3,29.77,West,269,4.0,11.0,24,0.00,,,0.00,Wunderground v.1.15,2013-08-13 23:29:00,
2013-08-13 17:39:00,86.9,47.9,29.78,NW,321,3.0,3.0,26,0.00,,,0.00,Wunderground v.1.15,2013-08-13 23:39:00,
2013-08-13 17:49:00,87.7,49.6,29.78,West,263,2.0,4.0,27,0.00,,,0.00,Wunderground v.1.15,2013-08-13 23:49:00,
2013-08-13 17:59:00,88.7,48.4,29.77,WNW,283,4.0,4.0,25,0.00,,,0.00,Wunderground v.1.15,2013-08-13 23:59:00,
2013-08-13 18:09:00,89.9,49.4,29.77,West,279,3.0,7.0,25,0.00,,,0.00,Wunderground v.1.15,2013-08-14 00:09:00,
2013-08-13 18:19:00,89.2,47.7,29.76,WNW,296,5.0,6.0,24,0.00,,,0.00,Wunderground v.1.15,2013-08-14 00:19:00,
2013-08-13 18:29:00,89.7,49.2,29.76,NNW,327,2.0,2.0,25,0.00,,,0.00,Wunderground v.1.15,2013-08-14 00:29:00,
2013-08-13 18:39:00,90.8,52.2,29.75,WNW,286,2.0,2.0,27,0.00,,,0.00,Wunderground v.1.15,2013-08-14 00:39:00,
2013-08-13 18:50:00,89.8,48.2,29.75,WNW,282,2.0,2.0,24,0.00,,,0.00,Wunderground v.1.15,2013-08-14 00:50:00,
2013-08-13 18:59:00,90.7,52.1,29.75,WNW,297,1.0,1.0,27,0.00,,,0.00,Wunderground v.1.15,2013-08-14 00:59:00,
2013-08-13 19:09:00,91.0,51.4,29.73,NW,323,0.0,0.0,26,0.00,,,0.00,Wunderground v.1.15,2013-08-14 01:09:00,
2013-08-13 19:19:00,90.9,52.3,29.73,NW,323,1.0,1.0,27,0.00,,,0.00,Wunderground v.1.15,2013-08-14 01:19:00,
2013-08-13 19:29:00,90.4,50.8,29.73,NW,323,1.0,1.0,26,0.00,,,0.00,Wunderground v.1.15,2013-08-14 01:29:00,
2013-08-13 19:39:00,89.9,51.4,29.73,NW,323,0.0,0.0,27,0.00,,,0.00,Wunderground v.1.15,2013-08-14 01:39:00,
2013-08-13 19:49:00,88.4,51.1,29.74,NW,323,0.0,0.0,28,0.00,,,0.00,Wunderground v.1.15,2013-08-14 01:49:00,
2013-08-13 19:59:00,86.8,50.7,29.75,NW,322,0.0,0.0,29,0.00,,,0.00,Wunderground v.1.15,2013-08-14 01:59:00,
2013-08-13 20:09:00,84.5,49.7,29.71,NW,323,0.0,0.0,30,0.00,,,0.00,Wunderground v.1.15,2013-08-14 02:09:00,
2013-08-13 20:19:00,82.0,55.3,29.72,NW,323,0.0,0.0,40,0.00,,,0.00,Wunderground v.1.15,2013-08-14 02:19:00,
2013-08-13 20:29:00,79.1,50.6,29.74,NW,323,0.0,0.0,37,0.00,,,0.00,Wunderground v.1.15,2013-08-14 02:29:00,
2013-08-13 20:39:00,77.4,48.3,29.76,ESE,119,0.0,3.0,36,0.00,,,0.00,Wunderground v.1.15,2013-08-14 02:39:00,
2013-08-13 20:49:00,78.3,46.8,29.75,ESE,114,2.0,3.0,33,0.00,,,0.00,Wunderground v.1.15,2013-08-14 02:49:00,
2013-08-13 20:59:00,78.2,46.7,29.76,East,90,2.0,5.0,33,0.00,,,0.00,Wunderground v.1.15,2013-08-14 02:59:00,
2013-08-13 21:09:00,77.6,47.0,29.74,East,84,3.0,3.0,34,0.00,,,0.00,Wunderground v.1.15,2013-08-14 03:09:00,
2013-08-13 21:19:00,77.5,45.3,29.75,SE,128,2.0,2.0,32,0.00,,,0.00,Wunderground v.1.15,2013-08-14 03:19:00,
2013-08-13 21:29:00,78.2,45.1,29.74,SE,145,1.0,1.0,31,0.00,,,0.00,Wunderground v.1.15,2013-08-14 03:29:00,
2013-08-13 21:40:00,78.0,46.6,29.74,SE,145,0.0,0.0,33,0.00,,,0.00,Wunderground v.1.15,2013-08-14 03:40:00,
2013-08-13 21:49:00,77.0,47.2,29.76,SE,145,0.0,0.0,35,0.00,,,0.00,Wunderground v.1.15,2013-08-14 03:49:00,
2013-08-13 21:59:00,74.5,47.2,29.77,SE,145,0.0,0.0,38,0.00,,,0.00,Wunderground v.1.15,2013-08-14 03:59:00,
2013-08-13 22:09:00,72.4,47.4,29.76,NE,38,1.0,1.0,41,0.00,,,0.00,Wunderground v.1.15,2013-08-14 04:09:00,
2013-08-13 22:19:00,71.3,47.0,29.77,NE,38,0.0,0.0,42,0.00,,,0.00,Wunderground v.1.15,2013-08-14 04:19:00,
2013-08-13 22:29:00,70.4,46.8,29.77,NE,38,0.0,0.0,43,0.00,,,0.00,Wunderground v.1.15,2013-08-14 04:29:00,
2013-08-13 22:39:00,69.4,47.7,29.77,NE,38,0.0,0.0,46,0.00,,,0.00,Wunderground v.1.15,2013-08-14 04:39:00,
2013-08-13 22:50:00,68.5,47.5,29.78,NE,38,0.0,0.0,47,0.00,,,0.00,Wunderground v.1.15,2013-08-14 04:50:00,
2013-08-13 22:59:00,67.9,47.5,29.78,NE,38,0.0,0.0,48,0.00,,,0.00,Wunderground v.1.15,2013-08-14 04:59:00,
2013-08-13 23:09:00,67.1,47.3,29.78,NE,38,0.0,0.0,49,0.00,,,0.00,Wunderground v.1.15,2013-08-14 05:09:00,
2013-08-13 23:19:00,66.5,47.8,29.78,NE,38,0.0,0.0,51,0.00,,,0.00,Wunderground v.1.15,2013-08-14 05:19:00,
2013-08-13 23:30:00,65.9,47.8,29.78,NE,38,0.0,0.0,52,0.00,,,0.00,Wunderground v.1.15,2013-08-14 05:30:00,
2013-08-13 23:39:00,66.2,47.0,29.78,NE,38,0.0,0.0,50,0.00,,,0.00,Wunderground v.1.15,2013-08-14 05:39:00,
2013-08-13 23:49:00,66.5,47.8,29.78,NE,38,0.0,0.0,51,0.00,,,0.00,Wunderground v.1.15,2013-08-14 05:49:00,